sensor_id;sensor_type;location;lat;lon;timestamp;P1;durP1;ratioP1;P2;durP2;ratioP2
28589;SDS011;15788;48.794;9.190;2022-09-02T00:01:15;8.75;;;3.40;;
28589;SDS011;15788;48.794;9.190;2022-09-02T00:03:49;9.48;;;3.55;;
28589;SDS011;15788;48.794;9.190;2022-09-02T00:06:15;5.68;;;3.38;;
28589;SDS011;15788;48.794;9.190;2022-09-02T00:08:41;8.30;;;3.47;;
28589;SDS011;15788;48.794;9.190;2022-09-02T00:11:08;8.82;;;3.28;;
28589;SDS011;15788;48.794;9.190;2022-09-02T00:13:35;7.85;;;3.13;;
28589;SDS011;15788;48.794;9.190;2022-09-02T00:16:02;6.88;;;3.08;;
28589;SDS011;15788;48.794;9.190;2022-09-02T00:18:28;7.55;;;3.15;;
28589;SDS011;15788;48.794;9.190;2022-09-02T00:20:54;5.78;;;3.33;;
28589;SDS011;15788;48.794;9.190;2022-09-02T00:23:19;4.75;;;2.88;;
28589;SDS011;15788;48.794;9.190;2022-09-02T00:25:45;6.32;;;3.33;;
28589;SDS011;15788;48.794;9.190;2022-09-02T00:28:11;6.47;;;3.22;;
28589;SDS011;15788;48.794;9.190;2022-09-02T00:30:38;5.07;;;3.38;;
28589;SDS011;15788;48.794;9.190;2022-09-02T00:33:04;7.05;;;2.92;;
28589;SDS011;15788;48.794;9.190;2022-09-02T00:35:30;5.45;;;2.83;;
28589;SDS011;15788;48.794;9.190;2022-09-02T00:37:55;4.90;;;2.85;;
28589;SDS011;15788;48.794;9.190;2022-09-02T00:40:21;4.45;;;2.92;;
28589;SDS011;15788;48.794;9.190;2022-09-02T00:42:47;8.48;;;2.95;;
28589;SDS011;15788;48.794;9.190;2022-09-02T00:45:13;6.20;;;2.92;;
28589;SDS011;15788;48.794;9.190;2022-09-02T00:47:39;7.38;;;3.15;;
28589;SDS011;15788;48.794;9.190;2022-09-02T00:50:05;6.63;;;2.88;;
28589;SDS011;15788;48.794;9.190;2022-09-02T00:52:34;6.05;;;2.83;;
28589;SDS011;15788;48.794;9.190;2022-09-02T00:55:45;7.75;;;2.88;;
28589;SDS011;15788;48.794;9.190;2022-09-02T00:58:00;4.70;;;2.90;;
28589;SDS011;15788;48.794;9.190;2022-09-02T01:00:35;4.07;;;3.00;;
28589;SDS011;15788;48.794;9.190;2022-09-02T01:05:32;4.93;;;3.13;;
28589;SDS011;15788;48.794;9.190;2022-09-02T01:07:59;5.45;;;2.92;;
28589;SDS011;15788;48.794;9.190;2022-09-02T01:10:26;5.50;;;2.80;;
28589;SDS011;15788;48.794;9.190;2022-09-02T01:13:09;6.30;;;3.03;;
28589;SDS011;15788;48.794;9.190;2022-09-02T01:15:40;4.97;;;2.72;;
28589;SDS011;15788;48.794;9.190;2022-09-02T01:18:09;4.32;;;2.72;;
28589;SDS011;15788;48.794;9.190;2022-09-02T01:20:38;4.70;;;2.92;;
28589;SDS011;15788;48.794;9.190;2022-09-02T01:23:03;4.65;;;2.90;;
28589;SDS011;15788;48.794;9.190;2022-09-02T01:25:31;4.47;;;2.60;;
28589;SDS011;15788;48.794;9.190;2022-09-02T01:27:58;4.38;;;2.70;;
28589;SDS011;15788;48.794;9.190;2022-09-02T01:30:24;5.35;;;2.80;;
28589;SDS011;15788;48.794;9.190;2022-09-02T01:32:50;7.43;;;2.80;;
28589;SDS011;15788;48.794;9.190;2022-09-02T01:35:15;5.20;;;2.67;;
28589;SDS011;15788;48.794;9.190;2022-09-02T01:37:41;4.07;;;2.40;;
28589;SDS011;15788;48.794;9.190;2022-09-02T01:40:09;8.68;;;3.08;;
28589;SDS011;15788;48.794;9.190;2022-09-02T01:42:36;5.60;;;2.53;;
28589;SDS011;15788;48.794;9.190;2022-09-02T01:45:03;4.25;;;3.03;;
28589;SDS011;15788;48.794;9.190;2022-09-02T01:47:29;7.00;;;2.83;;
28589;SDS011;15788;48.794;9.190;2022-09-02T01:49:54;3.95;;;2.50;;
28589;SDS011;15788;48.794;9.190;2022-09-02T01:52:20;4.72;;;2.90;;
28589;SDS011;15788;48.794;9.190;2022-09-02T01:54:47;5.20;;;2.53;;
28589;SDS011;15788;48.794;9.190;2022-09-02T01:57:13;8.07;;;2.80;;
28589;SDS011;15788;48.794;9.190;2022-09-02T01:59:39;10.55;;;3.30;;
28589;SDS011;15788;48.794;9.190;2022-09-02T02:02:05;5.30;;;2.50;;
28589;SDS011;15788;48.794;9.190;2022-09-02T02:04:30;4.68;;;2.63;;
28589;SDS011;15788;48.794;9.190;2022-09-02T02:06:56;6.00;;;2.60;;
28589;SDS011;15788;48.794;9.190;2022-09-02T02:09:21;4.85;;;2.53;;
28589;SDS011;15788;48.794;9.190;2022-09-02T02:11:48;4.35;;;2.55;;
28589;SDS011;15788;48.794;9.190;2022-09-02T02:14:14;3.58;;;2.40;;
28589;SDS011;15788;48.794;9.190;2022-09-02T02:16:40;4.10;;;2.55;;
28589;SDS011;15788;48.794;9.190;2022-09-02T02:19:05;4.43;;;2.63;;
28589;SDS011;15788;48.794;9.190;2022-09-02T02:21:31;3.78;;;2.47;;
28589;SDS011;15788;48.794;9.190;2022-09-02T02:23:57;4.72;;;2.67;;
28589;SDS011;15788;48.794;9.190;2022-09-02T02:26:25;14.40;;;3.30;;
28589;SDS011;15788;48.794;9.190;2022-09-02T02:28:51;6.13;;;2.90;;
28589;SDS011;15788;48.794;9.190;2022-09-02T02:31:16;4.07;;;2.35;;
28589;SDS011;15788;48.794;9.190;2022-09-02T02:33:41;3.25;;;2.30;;
28589;SDS011;15788;48.794;9.190;2022-09-02T02:36:07;5.95;;;2.47;;
28589;SDS011;15788;48.794;9.190;2022-09-02T02:38:33;3.83;;;2.63;;
28589;SDS011;15788;48.794;9.190;2022-09-02T02:40:59;3.72;;;2.50;;
28589;SDS011;15788;48.794;9.190;2022-09-02T02:43:25;4.13;;;2.50;;
28589;SDS011;15788;48.794;9.190;2022-09-02T02:45:51;5.00;;;2.30;;
28589;SDS011;15788;48.794;9.190;2022-09-02T02:48:18;5.45;;;2.85;;
28589;SDS011;15788;48.794;9.190;2022-09-02T02:50:44;2.70;;;2.20;;
28589;SDS011;15788;48.794;9.190;2022-09-02T02:53:09;5.30;;;2.50;;
28589;SDS011;15788;48.794;9.190;2022-09-02T02:55:36;5.47;;;2.38;;
28589;SDS011;15788;48.794;9.190;2022-09-02T02:58:01;2.70;;;2.30;;
28589;SDS011;15788;48.794;9.190;2022-09-02T03:00:28;2.97;;;2.50;;
28589;SDS011;15788;48.794;9.190;2022-09-02T03:02:55;3.47;;;2.40;;
28589;SDS011;15788;48.794;9.190;2022-09-02T03:05:25;6.63;;;2.53;;
28589;SDS011;15788;48.794;9.190;2022-09-02T03:07:51;3.85;;;2.45;;
28589;SDS011;15788;48.794;9.190;2022-09-02T03:10:16;3.83;;;2.33;;
28589;SDS011;15788;48.794;9.190;2022-09-02T03:12:42;4.53;;;2.65;;
28589;SDS011;15788;48.794;9.190;2022-09-02T03:15:12;5.50;;;2.40;;
28589;SDS011;15788;48.794;9.190;2022-09-02T03:17:38;5.25;;;2.30;;
28589;SDS011;15788;48.794;9.190;2022-09-02T03:20:04;3.97;;;2.30;;
28589;SDS011;15788;48.794;9.190;2022-09-02T03:22:30;6.30;;;2.45;;
28589;SDS011;15788;48.794;9.190;2022-09-02T03:24:55;4.38;;;2.08;;
28589;SDS011;15788;48.794;9.190;2022-09-02T03:27:20;3.33;;;2.35;;
28589;SDS011;15788;48.794;9.190;2022-09-02T03:29:46;2.78;;;2.35;;
28589;SDS011;15788;48.794;9.190;2022-09-02T03:32:11;5.35;;;2.20;;
28589;SDS011;15788;48.794;9.190;2022-09-02T03:34:36;6.20;;;2.50;;
28589;SDS011;15788;48.794;9.190;2022-09-02T03:37:02;5.88;;;2.28;;
28589;SDS011;15788;48.794;9.190;2022-09-02T03:39:27;4.18;;;2.45;;
28589;SDS011;15788;48.794;9.190;2022-09-02T03:41:53;3.25;;;2.50;;
28589;SDS011;15788;48.794;9.190;2022-09-02T03:44:18;3.33;;;2.17;;
28589;SDS011;15788;48.794;9.190;2022-09-02T03:46:43;3.08;;;2.10;;
28589;SDS011;15788;48.794;9.190;2022-09-02T03:49:09;3.65;;;2.28;;
28589;SDS011;15788;48.794;9.190;2022-09-02T03:51:34;3.63;;;2.10;;
28589;SDS011;15788;48.794;9.190;2022-09-02T03:54:04;2.15;;;1.92;;
28589;SDS011;15788;48.794;9.190;2022-09-02T03:56:31;2.50;;;2.22;;
28589;SDS011;15788;48.794;9.190;2022-09-02T03:58:56;3.65;;;2.25;;
28589;SDS011;15788;48.794;9.190;2022-09-02T04:01:23;4.07;;;2.20;;
28589;SDS011;15788;48.794;9.190;2022-09-02T04:03:49;3.67;;;2.30;;
28589;SDS011;15788;48.794;9.190;2022-09-02T04:06:15;9.98;;;2.05;;
28589;SDS011;15788;48.794;9.190;2022-09-02T04:08:42;2.42;;;2.20;;
28589;SDS011;15788;48.794;9.190;2022-09-02T04:11:09;4.40;;;2.10;;
28589;SDS011;15788;48.794;9.190;2022-09-02T04:13:37;8.85;;;2.00;;
28589;SDS011;15788;48.794;9.190;2022-09-02T04:16:13;3.85;;;1.90;;
28589;SDS011;15788;48.794;9.190;2022-09-02T04:18:41;5.93;;;2.00;;
28589;SDS011;15788;48.794;9.190;2022-09-02T04:21:06;6.20;;;2.00;;
28589;SDS011;15788;48.794;9.190;2022-09-02T04:23:33;4.47;;;2.38;;
28589;SDS011;15788;48.794;9.190;2022-09-02T04:26:02;2.42;;;1.98;;
28589;SDS011;15788;48.794;9.190;2022-09-02T04:28:33;4.63;;;2.50;;
28589;SDS011;15788;48.794;9.190;2022-09-02T04:30:58;4.45;;;2.40;;
28589;SDS011;15788;48.794;9.190;2022-09-02T04:33:23;7.97;;;2.33;;
28589;SDS011;15788;48.794;9.190;2022-09-02T04:35:49;4.25;;;2.08;;
28589;SDS011;15788;48.794;9.190;2022-09-02T04:38:15;4.60;;;2.13;;
28589;SDS011;15788;48.794;9.190;2022-09-02T04:40:41;8.45;;;2.70;;
28589;SDS011;15788;48.794;9.190;2022-09-02T04:43:07;6.10;;;2.47;;
28589;SDS011;15788;48.794;9.190;2022-09-02T04:45:33;5.35;;;2.15;;
28589;SDS011;15788;48.794;9.190;2022-09-02T04:47:58;4.32;;;2.17;;
28589;SDS011;15788;48.794;9.190;2022-09-02T04:50:24;4.47;;;2.20;;
28589;SDS011;15788;48.794;9.190;2022-09-02T04:52:49;17.23;;;2.80;;
28589;SDS011;15788;48.794;9.190;2022-09-02T04:55:14;9.20;;;3.45;;
28589;SDS011;15788;48.794;9.190;2022-09-02T04:57:40;8.68;;;2.83;;
28589;SDS011;15788;48.794;9.190;2022-09-02T05:00:06;10.77;;;2.72;;
28589;SDS011;15788;48.794;9.190;2022-09-02T05:02:32;3.63;;;2.10;;
28589;SDS011;15788;48.794;9.190;2022-09-02T05:04:58;5.68;;;2.40;;
28589;SDS011;15788;48.794;9.190;2022-09-02T05:07:23;18.88;;;2.72;;
28589;SDS011;15788;48.794;9.190;2022-09-02T05:09:49;40.35;;;4.78;;
28589;SDS011;15788;48.794;9.190;2022-09-02T05:12:14;26.63;;;3.80;;
28589;SDS011;15788;48.794;9.190;2022-09-02T05:14:39;18.90;;;3.25;;
28589;SDS011;15788;48.794;9.190;2022-09-02T05:17:04;13.50;;;3.42;;
28589;SDS011;15788;48.794;9.190;2022-09-02T05:19:30;14.88;;;4.15;;
28589;SDS011;15788;48.794;9.190;2022-09-02T05:21:55;20.90;;;3.92;;
28589;SDS011;15788;48.794;9.190;2022-09-02T05:24:23;3.53;;;2.47;;
28589;SDS011;15788;48.794;9.190;2022-09-02T05:26:49;3.42;;;2.40;;
28589;SDS011;15788;48.794;9.190;2022-09-02T05:29:15;6.55;;;2.83;;
28589;SDS011;15788;48.794;9.190;2022-09-02T05:31:41;3.90;;;2.40;;
28589;SDS011;15788;48.794;9.190;2022-09-02T05:34:07;6.65;;;2.38;;
28589;SDS011;15788;48.794;9.190;2022-09-02T05:36:32;3.78;;;2.50;;
28589;SDS011;15788;48.794;9.190;2022-09-02T05:38:58;5.82;;;2.67;;
28589;SDS011;15788;48.794;9.190;2022-09-02T05:41:24;2.88;;;2.28;;
28589;SDS011;15788;48.794;9.190;2022-09-02T05:43:50;7.15;;;2.63;;
28589;SDS011;15788;48.794;9.190;2022-09-02T05:46:18;4.00;;;2.60;;
28589;SDS011;15788;48.794;9.190;2022-09-02T05:48:46;7.22;;;2.53;;
28589;SDS011;15788;48.794;9.190;2022-09-02T05:51:49;2.83;;;2.17;;
28589;SDS011;15788;48.794;9.190;2022-09-02T05:54:19;3.28;;;2.17;;
28589;SDS011;15788;48.794;9.190;2022-09-02T05:56:50;5.57;;;2.00;;
28589;SDS011;15788;48.794;9.190;2022-09-02T05:59:17;4.63;;;2.13;;
28589;SDS011;15788;48.794;9.190;2022-09-02T06:01:44;5.05;;;2.13;;
28589;SDS011;15788;48.794;9.190;2022-09-02T06:04:09;3.63;;;2.22;;
28589;SDS011;15788;48.794;9.190;2022-09-02T06:06:35;3.65;;;2.00;;
28589;SDS011;15788;48.794;9.190;2022-09-02T06:09:02;2.95;;;2.10;;
28589;SDS011;15788;48.794;9.190;2022-09-02T06:11:30;5.38;;;1.90;;
28589;SDS011;15788;48.794;9.190;2022-09-02T06:13:55;2.45;;;1.80;;
28589;SDS011;15788;48.794;9.190;2022-09-02T06:16:22;2.30;;;1.67;;
28589;SDS011;15788;48.794;9.190;2022-09-02T06:18:47;5.43;;;2.03;;
28589;SDS011;15788;48.794;9.190;2022-09-02T06:21:14;2.72;;;1.85;;
28589;SDS011;15788;48.794;9.190;2022-09-02T06:23:40;2.90;;;2.00;;
28589;SDS011;15788;48.794;9.190;2022-09-02T06:26:06;2.80;;;1.80;;
28589;SDS011;15788;48.794;9.190;2022-09-02T06:28:33;2.85;;;1.90;;
28589;SDS011;15788;48.794;9.190;2022-09-02T06:30:58;2.65;;;1.80;;
28589;SDS011;15788;48.794;9.190;2022-09-02T06:33:24;3.15;;;1.85;;
28589;SDS011;15788;48.794;9.190;2022-09-02T06:35:49;2.97;;;1.92;;
28589;SDS011;15788;48.794;9.190;2022-09-02T06:38:15;3.92;;;2.00;;
28589;SDS011;15788;48.794;9.190;2022-09-02T06:40:51;2.30;;;1.70;;
28589;SDS011;15788;48.794;9.190;2022-09-02T06:43:17;2.25;;;1.73;;
28589;SDS011;15788;48.794;9.190;2022-09-02T06:45:43;2.30;;;1.60;;
28589;SDS011;15788;48.794;9.190;2022-09-02T06:48:09;2.65;;;2.08;;
28589;SDS011;15788;48.794;9.190;2022-09-02T06:50:41;4.93;;;1.90;;
28589;SDS011;15788;48.794;9.190;2022-09-02T06:53:09;2.42;;;1.80;;
28589;SDS011;15788;48.794;9.190;2022-09-02T06:55:35;2.30;;;2.03;;
28589;SDS011;15788;48.794;9.190;2022-09-02T06:58:05;3.22;;;2.03;;
28589;SDS011;15788;48.794;9.190;2022-09-02T07:00:30;3.03;;;1.90;;
28589;SDS011;15788;48.794;9.190;2022-09-02T07:02:59;2.78;;;1.80;;
28589;SDS011;15788;48.794;9.190;2022-09-02T07:05:43;2.25;;;1.55;;
28589;SDS011;15788;48.794;9.190;2022-09-02T07:08:08;3.55;;;2.03;;
28589;SDS011;15788;48.794;9.190;2022-09-02T07:10:36;1.83;;;1.60;;
28589;SDS011;15788;48.794;9.190;2022-09-02T07:13:03;3.88;;;1.92;;
28589;SDS011;15788;48.794;9.190;2022-09-02T07:15:28;2.53;;;1.65;;
28589;SDS011;15788;48.794;9.190;2022-09-02T07:17:54;2.55;;;1.80;;
28589;SDS011;15788;48.794;9.190;2022-09-02T07:20:19;2.75;;;1.58;;
28589;SDS011;15788;48.794;9.190;2022-09-02T07:22:44;2.42;;;1.60;;
28589;SDS011;15788;48.794;9.190;2022-09-02T07:25:10;2.28;;;1.90;;
28589;SDS011;15788;48.794;9.190;2022-09-02T07:27:35;3.92;;;1.80;;
28589;SDS011;15788;48.794;9.190;2022-09-02T07:30:01;2.92;;;1.77;;
28589;SDS011;15788;48.794;9.190;2022-09-02T07:32:29;2.75;;;1.60;;
28589;SDS011;15788;48.794;9.190;2022-09-02T07:34:55;1.92;;;1.58;;
28589;SDS011;15788;48.794;9.190;2022-09-02T07:37:20;2.40;;;1.80;;
28589;SDS011;15788;48.794;9.190;2022-09-02T07:39:45;2.40;;;1.38;;
28589;SDS011;15788;48.794;9.190;2022-09-02T07:42:11;2.53;;;1.55;;
28589;SDS011;15788;48.794;9.190;2022-09-02T07:44:36;2.80;;;1.75;;
28589;SDS011;15788;48.794;9.190;2022-09-02T07:47:01;2.33;;;1.60;;
28589;SDS011;15788;48.794;9.190;2022-09-02T07:49:27;2.38;;;1.60;;
28589;SDS011;15788;48.794;9.190;2022-09-02T07:51:53;3.17;;;1.38;;
28589;SDS011;15788;48.794;9.190;2022-09-02T07:54:19;2.38;;;1.58;;
28589;SDS011;15788;48.794;9.190;2022-09-02T07:56:46;2.47;;;1.60;;
28589;SDS011;15788;48.794;9.190;2022-09-02T07:59:12;1.90;;;1.52;;
28589;SDS011;15788;48.794;9.190;2022-09-02T08:01:37;2.70;;;1.67;;
28589;SDS011;15788;48.794;9.190;2022-09-02T08:04:03;1.60;;;1.42;;
28589;SDS011;15788;48.794;9.190;2022-09-02T08:06:30;5.25;;;1.63;;
28589;SDS011;15788;48.794;9.190;2022-09-02T08:08:57;2.08;;;1.63;;
28589;SDS011;15788;48.794;9.190;2022-09-02T08:11:22;3.58;;;1.70;;
28589;SDS011;15788;48.794;9.190;2022-09-02T08:13:48;3.63;;;1.52;;
28589;SDS011;15788;48.794;9.190;2022-09-02T08:16:13;2.30;;;1.67;;
28589;SDS011;15788;48.794;9.190;2022-09-02T08:18:39;1.80;;;1.30;;
28589;SDS011;15788;48.794;9.190;2022-09-02T08:21:04;2.00;;;1.40;;
28589;SDS011;15788;48.794;9.190;2022-09-02T08:23:29;2.92;;;1.65;;
28589;SDS011;15788;48.794;9.190;2022-09-02T08:25:57;2.17;;;1.35;;
28589;SDS011;15788;48.794;9.190;2022-09-02T08:28:23;2.15;;;1.70;;
28589;SDS011;15788;48.794;9.190;2022-09-02T08:30:48;2.22;;;1.20;;
28589;SDS011;15788;48.794;9.190;2022-09-02T08:33:14;2.78;;;1.67;;
28589;SDS011;15788;48.794;9.190;2022-09-02T08:35:39;2.80;;;1.48;;
28589;SDS011;15788;48.794;9.190;2022-09-02T08:38:04;1.73;;;1.42;;
28589;SDS011;15788;48.794;9.190;2022-09-02T08:40:33;3.50;;;1.50;;
28589;SDS011;15788;48.794;9.190;2022-09-02T08:43:00;2.38;;;1.58;;
28589;SDS011;15788;48.794;9.190;2022-09-02T08:45:34;3.00;;;1.80;;
28589;SDS011;15788;48.794;9.190;2022-09-02T08:50:44;1.40;;;1.30;;
28589;SDS011;15788;48.794;9.190;2022-09-02T08:55:57;1.58;;;1.40;;
28589;SDS011;15788;48.794;9.190;2022-09-02T08:58:24;1.90;;;1.38;;
28589;SDS011;15788;48.794;9.190;2022-09-02T09:00:56;1.52;;;1.30;;
28589;SDS011;15788;48.794;9.190;2022-09-02T09:06:31;1.52;;;1.30;;
28589;SDS011;15788;48.794;9.190;2022-09-02T09:09:23;2.83;;;1.40;;
28589;SDS011;15788;48.794;9.190;2022-09-02T09:15:04;2.00;;;1.38;;
28589;SDS011;15788;48.794;9.190;2022-09-02T09:20:20;1.60;;;1.30;;
28589;SDS011;15788;48.794;9.190;2022-09-02T09:22:48;1.48;;;1.30;;
28589;SDS011;15788;48.794;9.190;2022-09-02T09:25:15;1.40;;;1.30;;
28589;SDS011;15788;48.794;9.190;2022-09-02T09:27:41;2.13;;;1.33;;
28589;SDS011;15788;48.794;9.190;2022-09-02T09:30:10;1.45;;;1.35;;
28589;SDS011;15788;48.794;9.190;2022-09-02T09:32:39;1.65;;;1.40;;
28589;SDS011;15788;48.794;9.190;2022-09-02T09:35:13;1.45;;;1.10;;
28589;SDS011;15788;48.794;9.190;2022-09-02T09:37:40;3.08;;;1.60;;
28589;SDS011;15788;48.794;9.190;2022-09-02T09:40:39;1.23;;;1.00;;
28589;SDS011;15788;48.794;9.190;2022-09-02T09:45:32;1.20;;;1.10;;
28589;SDS011;15788;48.794;9.190;2022-09-02T09:50:37;1.17;;;1.08;;
28589;SDS011;15788;48.794;9.190;2022-09-02T09:53:19;1.58;;;1.00;;
28589;SDS011;15788;48.794;9.190;2022-09-02T09:58:18;1.50;;;1.10;;
28589;SDS011;15788;48.794;9.190;2022-09-02T10:00:44;1.70;;;1.20;;
28589;SDS011;15788;48.794;9.190;2022-09-02T10:03:10;1.00;;;0.90;;
28589;SDS011;15788;48.794;9.190;2022-09-02T10:05:46;1.15;;;1.00;;
28589;SDS011;15788;48.794;9.190;2022-09-02T10:10:40;1.23;;;0.98;;
28589;SDS011;15788;48.794;9.190;2022-09-02T10:13:23;1.20;;;1.10;;
28589;SDS011;15788;48.794;9.190;2022-09-02T10:18:52;1.38;;;1.10;;
28589;SDS011;15788;48.794;9.190;2022-09-02T10:24:53;1.40;;;1.00;;
28589;SDS011;15788;48.794;9.190;2022-09-02T10:28:12;1.70;;;1.23;;
28589;SDS011;15788;48.794;9.190;2022-09-02T10:30:24;2.13;;;1.10;;
28589;SDS011;15788;48.794;9.190;2022-09-02T10:35:37;1.30;;;1.20;;
28589;SDS011;15788;48.794;9.190;2022-09-02T10:45:47;3.95;;;1.20;;
28589;SDS011;15788;48.794;9.190;2022-09-02T10:51:12;3.50;;;1.20;;
28589;SDS011;15788;48.794;9.190;2022-09-02T10:59:53;4.23;;;1.50;;
28589;SDS011;15788;48.794;9.190;2022-09-02T11:04:54;6.05;;;1.30;;
28589;SDS011;15788;48.794;9.190;2022-09-02T11:07:28;3.35;;;1.15;;
28589;SDS011;15788;48.794;9.190;2022-09-02T11:09:58;7.75;;;1.20;;
28589;SDS011;15788;48.794;9.190;2022-09-02T11:12:34;6.57;;;1.40;;
28589;SDS011;15788;48.794;9.190;2022-09-02T11:18:09;3.38;;;1.20;;
28589;SDS011;15788;48.794;9.190;2022-09-02T11:20:59;2.10;;;1.20;;
28589;SDS011;15788;48.794;9.190;2022-09-02T11:23:33;8.38;;;1.50;;
28589;SDS011;15788;48.794;9.190;2022-09-02T11:26:15;6.03;;;1.40;;
28589;SDS011;15788;48.794;9.190;2022-09-02T11:28:44;24.67;;;2.05;;
28589;SDS011;15788;48.794;9.190;2022-09-02T11:31:17;8.10;;;1.55;;
28589;SDS011;15788;48.794;9.190;2022-09-02T11:33:49;3.92;;;1.30;;
28589;SDS011;15788;48.794;9.190;2022-09-02T11:36:19;5.18;;;1.25;;
28589;SDS011;15788;48.794;9.190;2022-09-02T11:38:59;3.83;;;1.20;;
28589;SDS011;15788;48.794;9.190;2022-09-02T11:44:29;6.32;;;1.45;;
28589;SDS011;15788;48.794;9.190;2022-09-02T11:55:23;33.35;;;3.30;;
28589;SDS011;15788;48.794;9.190;2022-09-02T11:57:53;19.95;;;2.83;;
28589;SDS011;15788;48.794;9.190;2022-09-02T12:03:31;18.98;;;2.75;;
28589;SDS011;15788;48.794;9.190;2022-09-02T12:06:06;23.75;;;2.35;;
28589;SDS011;15788;48.794;9.190;2022-09-02T12:11:01;19.15;;;2.15;;
28589;SDS011;15788;48.794;9.190;2022-09-02T12:21:18;13.88;;;2.20;;
28589;SDS011;15788;48.794;9.190;2022-09-02T12:26:13;12.05;;;2.03;;
28589;SDS011;15788;48.794;9.190;2022-09-02T12:28:44;7.35;;;1.63;;
28589;SDS011;15788;48.794;9.190;2022-09-02T12:36:44;6.10;;;1.63;;
28589;SDS011;15788;48.794;9.190;2022-09-02T12:41:55;6.60;;;1.52;;
28589;SDS011;15788;48.794;9.190;2022-09-02T12:44:25;5.18;;;1.60;;
28589;SDS011;15788;48.794;9.190;2022-09-02T12:49:44;3.47;;;1.40;;
28589;SDS011;15788;48.794;9.190;2022-09-02T12:57:38;5.50;;;1.17;;
28589;SDS011;15788;48.794;9.190;2022-09-02T13:00:04;6.75;;;1.50;;
28589;SDS011;15788;48.794;9.190;2022-09-02T13:02:53;6.85;;;1.40;;
28589;SDS011;15788;48.794;9.190;2022-09-02T13:05:30;5.53;;;1.35;;
28589;SDS011;15788;48.794;9.190;2022-09-02T13:13:18;2.70;;;1.20;;
28589;SDS011;15788;48.794;9.190;2022-09-02T13:18:58;2.83;;;1.13;;
28589;SDS011;15788;48.794;9.190;2022-09-02T13:24:56;5.70;;;1.75;;
28589;SDS011;15788;48.794;9.190;2022-09-02T13:31:09;4.10;;;1.20;;
28589;SDS011;15788;48.794;9.190;2022-09-02T13:33:30;1.65;;;1.00;;
28589;SDS011;15788;48.794;9.190;2022-09-02T13:35:56;3.53;;;1.27;;
28589;SDS011;15788;48.794;9.190;2022-09-02T13:38:24;2.22;;;0.98;;
28589;SDS011;15788;48.794;9.190;2022-09-02T13:40:51;2.55;;;1.02;;
28589;SDS011;15788;48.794;9.190;2022-09-02T13:43:17;3.75;;;1.20;;
28589;SDS011;15788;48.794;9.190;2022-09-02T13:45:44;3.83;;;1.10;;
28589;SDS011;15788;48.794;9.190;2022-09-02T13:48:14;2.60;;;0.90;;
28589;SDS011;15788;48.794;9.190;2022-09-02T13:50:43;1.52;;;0.90;;
28589;SDS011;15788;48.794;9.190;2022-09-02T13:53:12;2.70;;;1.10;;
28589;SDS011;15788;48.794;9.190;2022-09-02T13:55:46;1.33;;;1.10;;
28589;SDS011;15788;48.794;9.190;2022-09-02T14:00:55;2.00;;;0.88;;
28589;SDS011;15788;48.794;9.190;2022-09-02T14:03:22;1.98;;;1.10;;
28589;SDS011;15788;48.794;9.190;2022-09-02T14:05:51;2.38;;;1.00;;
28589;SDS011;15788;48.794;9.190;2022-09-02T14:08:19;3.17;;;0.93;;
28589;SDS011;15788;48.794;9.190;2022-09-02T14:10:46;1.60;;;1.00;;
28589;SDS011;15788;48.794;9.190;2022-09-02T14:13:13;2.38;;;1.00;;
28589;SDS011;15788;48.794;9.190;2022-09-02T14:15:39;1.92;;;0.88;;
28589;SDS011;15788;48.794;9.190;2022-09-02T14:18:09;2.88;;;1.00;;
28589;SDS011;15788;48.794;9.190;2022-09-02T14:21:02;3.05;;;1.00;;
28589;SDS011;15788;48.794;9.190;2022-09-02T14:23:45;0.70;;;0.70;;
28589;SDS011;15788;48.794;9.190;2022-09-02T14:26:12;2.58;;;0.85;;
28589;SDS011;15788;48.794;9.190;2022-09-02T14:28:49;2.03;;;0.95;;
28589;SDS011;15788;48.794;9.190;2022-09-02T14:31:25;2.80;;;1.00;;
28589;SDS011;15788;48.794;9.190;2022-09-02T14:33:54;3.78;;;0.95;;
28589;SDS011;15788;48.794;9.190;2022-09-02T14:43:45;2.10;;;1.02;;
28589;SDS011;15788;48.794;9.190;2022-09-02T14:46:13;2.13;;;1.10;;
28589;SDS011;15788;48.794;9.190;2022-09-02T14:48:49;2.20;;;0.90;;
28589;SDS011;15788;48.794;9.190;2022-09-02T14:51:16;1.58;;;1.10;;
28589;SDS011;15788;48.794;9.190;2022-09-02T14:53:42;1.45;;;0.95;;
28589;SDS011;15788;48.794;9.190;2022-09-02T14:56:08;1.27;;;0.90;;
28589;SDS011;15788;48.794;9.190;2022-09-02T14:58:33;1.25;;;0.75;;
28589;SDS011;15788;48.794;9.190;2022-09-02T15:00:59;3.05;;;1.10;;
28589;SDS011;15788;48.794;9.190;2022-09-02T15:03:25;1.08;;;0.70;;
28589;SDS011;15788;48.794;9.190;2022-09-02T15:05:51;1.17;;;0.75;;
28589;SDS011;15788;48.794;9.190;2022-09-02T15:08:17;1.33;;;0.80;;
28589;SDS011;15788;48.794;9.190;2022-09-02T15:10:43;2.03;;;0.90;;
28589;SDS011;15788;48.794;9.190;2022-09-02T15:13:13;1.10;;;0.80;;
28589;SDS011;15788;48.794;9.190;2022-09-02T15:15:59;1.67;;;0.80;;
28589;SDS011;15788;48.794;9.190;2022-09-02T15:18:25;1.75;;;0.90;;
28589;SDS011;15788;48.794;9.190;2022-09-02T15:20:51;1.27;;;0.82;;
28589;SDS011;15788;48.794;9.190;2022-09-02T15:23:16;1.17;;;1.00;;
28589;SDS011;15788;48.794;9.190;2022-09-02T15:25:41;1.45;;;0.90;;
28589;SDS011;15788;48.794;9.190;2022-09-02T15:28:07;1.40;;;0.95;;
28589;SDS011;15788;48.794;9.190;2022-09-02T15:30:33;1.15;;;0.90;;
28589;SDS011;15788;48.794;9.190;2022-09-02T15:33:03;0.90;;;0.80;;
28589;SDS011;15788;48.794;9.190;2022-09-02T15:35:30;1.35;;;0.75;;
28589;SDS011;15788;48.794;9.190;2022-09-02T15:37:57;3.30;;;1.00;;
28589;SDS011;15788;48.794;9.190;2022-09-02T15:40:22;1.42;;;0.85;;
28589;SDS011;15788;48.794;9.190;2022-09-02T15:42:48;1.52;;;0.85;;
28589;SDS011;15788;48.794;9.190;2022-09-02T15:45:13;1.25;;;0.75;;
28589;SDS011;15788;48.794;9.190;2022-09-02T15:47:39;1.90;;;1.00;;
28589;SDS011;15788;48.794;9.190;2022-09-02T15:50:05;1.58;;;0.70;;
28589;SDS011;15788;48.794;9.190;2022-09-02T15:52:32;1.27;;;1.10;;
28589;SDS011;15788;48.794;9.190;2022-09-02T15:54:58;1.00;;;0.85;;
28589;SDS011;15788;48.794;9.190;2022-09-02T15:57:23;2.05;;;1.20;;
28589;SDS011;15788;48.794;9.190;2022-09-02T15:59:49;1.58;;;0.80;;
28589;SDS011;15788;48.794;9.190;2022-09-02T16:02:15;0.80;;;0.80;;
28589;SDS011;15788;48.794;9.190;2022-09-02T16:04:40;2.00;;;0.90;;
28589;SDS011;15788;48.794;9.190;2022-09-02T16:07:05;1.00;;;0.90;;
28589;SDS011;15788;48.794;9.190;2022-09-02T16:09:31;0.93;;;0.80;;
28589;SDS011;15788;48.794;9.190;2022-09-02T16:11:56;1.27;;;0.95;;
28589;SDS011;15788;48.794;9.190;2022-09-02T16:14:22;0.80;;;0.80;;
28589;SDS011;15788;48.794;9.190;2022-09-02T16:16:48;1.20;;;0.90;;
28589;SDS011;15788;48.794;9.190;2022-09-02T16:19:14;0.95;;;0.80;;
28589;SDS011;15788;48.794;9.190;2022-09-02T16:21:39;1.05;;;0.95;;
28589;SDS011;15788;48.794;9.190;2022-09-02T16:24:05;0.95;;;0.68;;
28589;SDS011;15788;48.794;9.190;2022-09-02T16:26:32;1.02;;;0.77;;
28589;SDS011;15788;48.794;9.190;2022-09-02T16:29:03;1.17;;;1.00;;
28589;SDS011;15788;48.794;9.190;2022-09-02T16:31:30;1.23;;;0.80;;
28589;SDS011;15788;48.794;9.190;2022-09-02T16:34:02;1.27;;;0.80;;
28589;SDS011;15788;48.794;9.190;2022-09-02T16:36:29;1.10;;;0.80;;
28589;SDS011;15788;48.794;9.190;2022-09-02T16:38:56;1.08;;;0.80;;
28589;SDS011;15788;48.794;9.190;2022-09-02T16:41:25;0.80;;;0.65;;
28589;SDS011;15788;48.794;9.190;2022-09-02T16:43:58;2.25;;;0.70;;
28589;SDS011;15788;48.794;9.190;2022-09-02T16:46:25;1.45;;;1.08;;
28589;SDS011;15788;48.794;9.190;2022-09-02T16:48:51;1.05;;;0.95;;
28589;SDS011;15788;48.794;9.190;2022-09-02T16:51:17;0.85;;;0.85;;
28589;SDS011;15788;48.794;9.190;2022-09-02T16:53:43;1.30;;;0.90;;
28589;SDS011;15788;48.794;9.190;2022-09-02T16:56:12;1.02;;;0.80;;
28589;SDS011;15788;48.794;9.190;2022-09-02T16:58:37;1.13;;;0.80;;
28589;SDS011;15788;48.794;9.190;2022-09-02T17:01:03;1.00;;;0.80;;